sensor_id;sensor_type;location;lat;lon;timestamp;temperature;humidity
9790;DHT22;4934;50.852;8.098;2023-12-14T00:00:14;2.20;99.90
9790;DHT22;4934;50.852;8.098;2023-12-14T00:02:39;2.20;99.90
9790;DHT22;4934;50.852;8.098;2023-12-14T00:05:05;2.30;99.90
9790;DHT22;4934;50.852;8.098;2023-12-14T00:07:31;2.30;99.90
9790;DHT22;4934;50.852;8.098;2023-12-14T00:09:56;2.30;99.90
9790;DHT22;4934;50.852;8.098;2023-12-14T00:12:23;2.30;99.90
9790;DHT22;4934;50.852;8.098;2023-12-14T00:14:48;2.30;99.90
9790;DHT22;4934;50.852;8.098;2023-12-14T00:17:14;2.40;99.90
9790;DHT22;4934;50.852;8.098;2023-12-14T00:19:39;2.40;99.90
9790;DHT22;4934;50.852;8.098;2023-12-14T00:22:05;2.50;99.90
9790;DHT22;4934;50.852;8.098;2023-12-14T00:24:30;2.60;99.90
9790;DHT22;4934;50.852;8.098;2023-12-14T00:26:56;2.60;99.90
9790;DHT22;4934;50.852;8.098;2023-12-14T00:29:22;2.60;99.90
9790;DHT22;4934;50.852;8.098;2023-12-14T00:31:47;2.60;99.90
9790;DHT22;4934;50.852;8.098;2023-12-14T00:34:13;2.70;99.90
9790;DHT22;4934;50.852;8.098;2023-12-14T00:36:38;2.80;99.90
9790;DHT22;4934;50.852;8.098;2023-12-14T00:39:04;2.80;99.90
9790;DHT22;4934;50.852;8.098;2023-12-14T00:41:29;2.80;99.90
9790;DHT22;4934;50.852;8.098;2023-12-14T00:43:55;2.90;99.90
9790;DHT22;4934;50.852;8.098;2023-12-14T00:46:20;2.80;99.90
9790;DHT22;4934;50.852;8.098;2023-12-14T00:48:46;2.70;99.90
9790;DHT22;4934;50.852;8.098;2023-12-14T00:51:12;2.80;99.90
9790;DHT22;4934;50.852;8.098;2023-12-14T00:53:37;2.80;99.90
9790;DHT22;4934;50.852;8.098;2023-12-14T00:56:03;2.80;99.90
9790;DHT22;4934;50.852;8.098;2023-12-14T00:58:29;2.80;99.90
9790;DHT22;4934;50.852;8.098;2023-12-14T01:00:54;2.80;99.90
9790;DHT22;4934;50.852;8.098;2023-12-14T01:03:20;2.80;99.90
9790;DHT22;4934;50.852;8.098;2023-12-14T01:05:46;2.70;99.90
9790;DHT22;4934;50.852;8.098;2023-12-14T01:08:11;2.70;99.90
9790;DHT22;4934;50.852;8.098;2023-12-14T01:10:37;2.70;99.90
9790;DHT22;4934;50.852;8.098;2023-12-14T01:13:03;2.70;99.90
9790;DHT22;4934;50.852;8.098;2023-12-14T01:15:28;2.80;99.90
9790;DHT22;4934;50.852;8.098;2023-12-14T01:17:54;2.90;99.90
9790;DHT22;4934;50.852;8.098;2023-12-14T01:20:19;2.80;99.90
9790;DHT22;4934;50.852;8.098;2023-12-14T01:22:45;2.90;99.90
9790;DHT22;4934;50.852;8.098;2023-12-14T01:25:11;2.90;99.90
9790;DHT22;4934;50.852;8.098;2023-12-14T01:27:36;2.90;99.90
9790;DHT22;4934;50.852;8.098;2023-12-14T01:30:02;2.90;99.90
9790;DHT22;4934;50.852;8.098;2023-12-14T01:32:28;3.00;99.90
9790;DHT22;4934;50.852;8.098;2023-12-14T01:34:53;3.00;99.90
9790;DHT22;4934;50.852;8.098;2023-12-14T01:37:19;3.00;99.90
9790;DHT22;4934;50.852;8.098;2023-12-14T01:39:44;3.00;99.90
9790;DHT22;4934;50.852;8.098;2023-12-14T01:42:10;3.00;99.90
9790;DHT22;4934;50.852;8.098;2023-12-14T01:44:36;3.00;99.90
9790;DHT22;4934;50.852;8.098;2023-12-14T01:47:01;3.00;99.90
9790;DHT22;4934;50.852;8.098;2023-12-14T01:49:27;3.00;99.90
9790;DHT22;4934;50.852;8.098;2023-12-14T01:51:52;3.10;99.90
9790;DHT22;4934;50.852;8.098;2023-12-14T01:54:18;3.10;99.90
9790;DHT22;4934;50.852;8.098;2023-12-14T01:56:43;3.10;99.90
9790;DHT22;4934;50.852;8.098;2023-12-14T01:59:09;3.20;99.90
9790;DHT22;4934;50.852;8.098;2023-12-14T02:01:45;3.20;99.90
9790;DHT22;4934;50.852;8.098;2023-12-14T02:04:12;3.10;99.90
9790;DHT22;4934;50.852;8.098;2023-12-14T02:06:39;3.20;99.90
9790;DHT22;4934;50.852;8.098;2023-12-14T02:09:05;3.20;99.90
9790;DHT22;4934;50.852;8.098;2023-12-14T02:11:31;3.20;99.90
9790;DHT22;4934;50.852;8.098;2023-12-14T02:13:56;3.20;99.90
9790;DHT22;4934;50.852;8.098;2023-12-14T02:16:22;3.30;99.90
9790;DHT22;4934;50.852;8.098;2023-12-14T02:18:48;3.30;99.90
9790;DHT22;4934;50.852;8.098;2023-12-14T02:21:13;3.30;99.90
9790;DHT22;4934;50.852;8.098;2023-12-14T02:23:44;3.30;99.90
9790;DHT22;4934;50.852;8.098;2023-12-14T02:26:13;3.40;99.90
9790;DHT22;4934;50.852;8.098;2023-12-14T02:28:39;3.40;99.90
9790;DHT22;4934;50.852;8.098;2023-12-14T02:31:05;3.40;99.90
9790;DHT22;4934;50.852;8.098;2023-12-14T02:33:30;3.40;99.90
9790;DHT22;4934;50.852;8.098;2023-12-14T02:35:56;3.30;99.90
9790;DHT22;4934;50.852;8.098;2023-12-14T02:38:22;3.40;99.90
9790;DHT22;4934;50.852;8.098;2023-12-14T02:40:47;3.40;99.90
9790;DHT22;4934;50.852;8.098;2023-12-14T02:43:13;3.40;99.90
9790;DHT22;4934;50.852;8.098;2023-12-14T02:45:38;3.50;99.90
9790;DHT22;4934;50.852;8.098;2023-12-14T02:48:04;3.50;99.90
9790;DHT22;4934;50.852;8.098;2023-12-14T02:50:30;3.50;99.90
9790;DHT22;4934;50.852;8.098;2023-12-14T02:52:55;3.50;99.90
9790;DHT22;4934;50.852;8.098;2023-12-14T02:55:21;3.50;99.90
9790;DHT22;4934;50.852;8.098;2023-12-14T02:57:47;3.60;99.90
9790;DHT22;4934;50.852;8.098;2023-12-14T03:00:12;3.70;99.90
9790;DHT22;4934;50.852;8.098;2023-12-14T03:02:38;3.60;99.90
9790;DHT22;4934;50.852;8.098;2023-12-14T03:05:04;3.60;99.90
9790;DHT22;4934;50.852;8.098;2023-12-14T03:07:30;3.60;99.90
9790;DHT22;4934;50.852;8.098;2023-12-14T03:09:55;3.60;99.90
9790;DHT22;4934;50.852;8.098;2023-12-14T03:12:21;3.60;99.90
9790;DHT22;4934;50.852;8.098;2023-12-14T03:14:46;3.70;99.90
9790;DHT22;4934;50.852;8.098;2023-12-14T03:17:12;3.70;99.90
9790;DHT22;4934;50.852;8.098;2023-12-14T03:19:42;3.70;99.90
9790;DHT22;4934;50.852;8.098;2023-12-14T03:22:08;3.70;99.90
9790;DHT22;4934;50.852;8.098;2023-12-14T03:24:34;3.70;99.90
9790;DHT22;4934;50.852;8.098;2023-12-14T03:27:01;3.70;99.90
9790;DHT22;4934;50.852;8.098;2023-12-14T03:29:27;3.70;99.90
9790;DHT22;4934;50.852;8.098;2023-12-14T03:31:56;3.60;99.90
9790;DHT22;4934;50.852;8.098;2023-12-14T03:34:22;3.60;99.90
9790;DHT22;4934;50.852;8.098;2023-12-14T03:36:48;3.60;99.90
9790;DHT22;4934;50.852;8.098;2023-12-14T03:39:14;3.70;99.90
9790;DHT22;4934;50.852;8.098;2023-12-14T03:41:41;3.70;99.90
9790;DHT22;4934;50.852;8.098;2023-12-14T03:44:07;3.70;99.90
9790;DHT22;4934;50.852;8.098;2023-12-14T03:46:32;3.70;99.90
9790;DHT22;4934;50.852;8.098;2023-12-14T03:48:59;3.70;99.90
9790;DHT22;4934;50.852;8.098;2023-12-14T03:51:25;3.70;99.90
9790;DHT22;4934;50.852;8.098;2023-12-14T03:53:50;3.80;99.90
9790;DHT22;4934;50.852;8.098;2023-12-14T03:56:16;3.80;99.90
9790;DHT22;4934;50.852;8.098;2023-12-14T03:58:42;3.80;99.90
9790;DHT22;4934;50.852;8.098;2023-12-14T04:01:07;3.80;99.90
9790;DHT22;4934;50.852;8.098;2023-12-14T04:03:33;3.80;99.90
9790;DHT22;4934;50.852;8.098;2023-12-14T04:05:58;3.80;99.90
9790;DHT22;4934;50.852;8.098;2023-12-14T04:08:24;3.90;99.90
9790;DHT22;4934;50.852;8.098;2023-12-14T04:10:50;3.90;99.90
9790;DHT22;4934;50.852;8.098;2023-12-14T04:13:15;3.80;99.90
9790;DHT22;4934;50.852;8.098;2023-12-14T04:15:41;3.90;99.90
9790;DHT22;4934;50.852;8.098;2023-12-14T04:18:07;3.90;99.90
9790;DHT22;4934;50.852;8.098;2023-12-14T04:20:33;3.90;99.90
9790;DHT22;4934;50.852;8.098;2023-12-14T04:22:59;4.00;99.90
9790;DHT22;4934;50.852;8.098;2023-12-14T04:25:24;4.00;99.90
9790;DHT22;4934;50.852;8.098;2023-12-14T04:27:50;4.00;99.90
9790;DHT22;4934;50.852;8.098;2023-12-14T04:30:16;4.00;99.90
9790;DHT22;4934;50.852;8.098;2023-12-14T04:32:41;4.10;99.90
9790;DHT22;4934;50.852;8.098;2023-12-14T04:35:09;4.10;99.90
9790;DHT22;4934;50.852;8.098;2023-12-14T04:37:34;4.10;99.90
9790;DHT22;4934;50.852;8.098;2023-12-14T04:40:01;4.10;99.90
9790;DHT22;4934;50.852;8.098;2023-12-14T04:42:26;4.00;99.90
9790;DHT22;4934;50.852;8.098;2023-12-14T04:44:53;4.00;99.90
9790;DHT22;4934;50.852;8.098;2023-12-14T04:47:18;4.00;99.90
9790;DHT22;4934;50.852;8.098;2023-12-14T04:49:44;4.00;99.90
9790;DHT22;4934;50.852;8.098;2023-12-14T04:52:09;4.10;99.90
9790;DHT22;4934;50.852;8.098;2023-12-14T04:54:35;4.20;99.90
9790;DHT22;4934;50.852;8.098;2023-12-14T04:57:03;4.30;99.90
9790;DHT22;4934;50.852;8.098;2023-12-14T04:59:29;4.40;99.90
9790;DHT22;4934;50.852;8.098;2023-12-14T05:01:55;4.40;99.90
9790;DHT22;4934;50.852;8.098;2023-12-14T05:04:20;4.30;99.90
9790;DHT22;4934;50.852;8.098;2023-12-14T05:06:46;4.40;99.90
9790;DHT22;4934;50.852;8.098;2023-12-14T05:09:11;4.50;99.90
9790;DHT22;4934;50.852;8.098;2023-12-14T05:11:39;4.40;99.90
9790;DHT22;4934;50.852;8.098;2023-12-14T05:14:05;4.50;99.90
9790;DHT22;4934;50.852;8.098;2023-12-14T05:16:30;4.50;99.90
9790;DHT22;4934;50.852;8.098;2023-12-14T05:18:56;4.60;99.90
9790;DHT22;4934;50.852;8.098;2023-12-14T05:21:24;4.70;99.90
9790;DHT22;4934;50.852;8.098;2023-12-14T05:23:50;4.70;99.90
9790;DHT22;4934;50.852;8.098;2023-12-14T05:26:16;4.70;99.90
9790;DHT22;4934;50.852;8.098;2023-12-14T05:28:41;4.60;99.90
9790;DHT22;4934;50.852;8.098;2023-12-14T05:31:07;4.50;99.90
9790;DHT22;4934;50.852;8.098;2023-12-14T05:33:36;4.60;99.90
9790;DHT22;4934;50.852;8.098;2023-12-14T05:36:02;4.60;99.90
9790;DHT22;4934;50.852;8.098;2023-12-14T05:38:31;4.70;99.90
9790;DHT22;4934;50.852;8.098;2023-12-14T05:40:56;4.70;99.90
9790;DHT22;4934;50.852;8.098;2023-12-14T05:43:22;4.80;99.90
9790;DHT22;4934;50.852;8.098;2023-12-14T05:45:47;4.80;99.90
9790;DHT22;4934;50.852;8.098;2023-12-14T05:48:13;4.90;99.90
9790;DHT22;4934;50.852;8.098;2023-12-14T05:50:39;4.90;99.90
9790;DHT22;4934;50.852;8.098;2023-12-14T05:53:04;4.90;99.90
9790;DHT22;4934;50.852;8.098;2023-12-14T05:55:30;4.90;99.90
9790;DHT22;4934;50.852;8.098;2023-12-14T05:57:55;4.90;99.90
9790;DHT22;4934;50.852;8.098;2023-12-14T06:00:23;4.90;99.90
9790;DHT22;4934;50.852;8.098;2023-12-14T06:02:48;5.00;99.90
9790;DHT22;4934;50.852;8.098;2023-12-14T06:05:14;5.00;99.90
9790;DHT22;4934;50.852;8.098;2023-12-14T06:07:39;4.90;99.90
9790;DHT22;4934;50.852;8.098;2023-12-14T06:10:05;4.90;99.90
9790;DHT22;4934;50.852;8.098;2023-12-14T06:12:31;5.00;99.90
9790;DHT22;4934;50.852;8.098;2023-12-14T06:14:57;5.00;99.90
9790;DHT22;4934;50.852;8.098;2023-12-14T06:17:22;5.10;99.90
9790;DHT22;4934;50.852;8.098;2023-12-14T06:19:48;5.10;99.90
9790;DHT22;4934;50.852;8.098;2023-12-14T06:22:14;5.10;99.90
9790;DHT22;4934;50.852;8.098;2023-12-14T06:24:39;5.00;99.90
9790;DHT22;4934;50.852;8.098;2023-12-14T06:27:05;5.10;99.90
9790;DHT22;4934;50.852;8.098;2023-12-14T06:29:30;5.00;99.90
9790;DHT22;4934;50.852;8.098;2023-12-14T06:31:56;5.00;99.90
9790;DHT22;4934;50.852;8.098;2023-12-14T06:34:22;5.00;99.90
9790;DHT22;4934;50.852;8.098;2023-12-14T06:36:47;5.00;99.90
9790;DHT22;4934;50.852;8.098;2023-12-14T06:39:13;5.10;99.90
9790;DHT22;4934;50.852;8.098;2023-12-14T06:41:39;5.00;99.90
9790;DHT22;4934;50.852;8.098;2023-12-14T06:44:04;5.00;99.90
9790;DHT22;4934;50.852;8.098;2023-12-14T06:46:30;5.10;99.90
9790;DHT22;4934;50.852;8.098;2023-12-14T06:48:56;5.00;99.90
9790;DHT22;4934;50.852;8.098;2023-12-14T06:51:22;4.90;99.90
9790;DHT22;4934;50.852;8.098;2023-12-14T06:53:48;4.90;99.90
9790;DHT22;4934;50.852;8.098;2023-12-14T06:56:14;5.00;99.90
9790;DHT22;4934;50.852;8.098;2023-12-14T06:58:41;5.00;99.90
9790;DHT22;4934;50.852;8.098;2023-12-14T07:01:07;5.00;99.90
9790;DHT22;4934;50.852;8.098;2023-12-14T07:03:33;4.90;99.90
9790;DHT22;4934;50.852;8.098;2023-12-14T07:05:59;5.00;99.90
9790;DHT22;4934;50.852;8.098;2023-12-14T07:08:25;4.90;99.90
9790;DHT22;4934;50.852;8.098;2023-12-14T07:10:50;4.90;99.90
9790;DHT22;4934;50.852;8.098;2023-12-14T07:13:16;4.90;99.90
9790;DHT22;4934;50.852;8.098;2023-12-14T07:15:42;4.90;99.90
9790;DHT22;4934;50.852;8.098;2023-12-14T07:18:08;4.90;99.90
9790;DHT22;4934;50.852;8.098;2023-12-14T07:20:33;4.90;99.90
9790;DHT22;4934;50.852;8.098;2023-12-14T07:22:59;4.90;99.90
9790;DHT22;4934;50.852;8.098;2023-12-14T07:25:24;4.90;99.90
9790;DHT22;4934;50.852;8.098;2023-12-14T07:27:50;5.00;99.90
9790;DHT22;4934;50.852;8.098;2023-12-14T07:30:16;4.90;99.90
9790;DHT22;4934;50.852;8.098;2023-12-14T07:32:42;5.10;99.90
9790;DHT22;4934;50.852;8.098;2023-12-14T07:35:08;4.90;99.90
9790;DHT22;4934;50.852;8.098;2023-12-14T07:37:34;4.90;99.90
9790;DHT22;4934;50.852;8.098;2023-12-14T07:39:59;4.80;99.90
9790;DHT22;4934;50.852;8.098;2023-12-14T07:42:25;4.80;99.90
9790;DHT22;4934;50.852;8.098;2023-12-14T07:44:51;4.80;99.90
9790;DHT22;4934;50.852;8.098;2023-12-14T07:47:17;4.90;99.90
9790;DHT22;4934;50.852;8.098;2023-12-14T07:49:42;4.80;99.90
9790;DHT22;4934;50.852;8.098;2023-12-14T07:52:08;4.80;99.90
9790;DHT22;4934;50.852;8.098;2023-12-14T07:54:35;4.80;99.90
9790;DHT22;4934;50.852;8.098;2023-12-14T07:57:01;4.80;99.90
9790;DHT22;4934;50.852;8.098;2023-12-14T07:59:26;4.80;99.90
9790;DHT22;4934;50.852;8.098;2023-12-14T08:01:52;4.80;99.90
9790;DHT22;4934;50.852;8.098;2023-12-14T08:04:17;4.80;99.90
9790;DHT22;4934;50.852;8.098;2023-12-14T08:06:43;4.70;99.90
9790;DHT22;4934;50.852;8.098;2023-12-14T08:09:08;4.70;99.90
9790;DHT22;4934;50.852;8.098;2023-12-14T08:11:34;4.60;99.90
9790;DHT22;4934;50.852;8.098;2023-12-14T08:14:00;4.60;99.90
9790;DHT22;4934;50.852;8.098;2023-12-14T08:16:25;4.70;99.90
9790;DHT22;4934;50.852;8.098;2023-12-14T08:18:51;4.60;99.90
9790;DHT22;4934;50.852;8.098;2023-12-14T08:21:18;4.70;99.90
9790;DHT22;4934;50.852;8.098;2023-12-14T08:23:44;4.70;99.90
9790;DHT22;4934;50.852;8.098;2023-12-14T08:26:10;4.70;99.90
9790;DHT22;4934;50.852;8.098;2023-12-14T08:28:37;4.60;99.90
9790;DHT22;4934;50.852;8.098;2023-12-14T08:31:03;4.50;99.90
9790;DHT22;4934;50.852;8.098;2023-12-14T08:33:30;4.50;99.90
9790;DHT22;4934;50.852;8.098;2023-12-14T08:35:55;4.50;99.90
9790;DHT22;4934;50.852;8.098;2023-12-14T08:38:21;4.50;99.90
9790;DHT22;4934;50.852;8.098;2023-12-14T08:40:47;4.50;99.90
9790;DHT22;4934;50.852;8.098;2023-12-14T08:43:12;4.50;99.90
9790;DHT22;4934;50.852;8.098;2023-12-14T08:45:38;4.50;99.90
9790;DHT22;4934;50.852;8.098;2023-12-14T08:48:04;4.50;99.90
9790;DHT22;4934;50.852;8.098;2023-12-14T08:50:30;4.60;99.90
9790;DHT22;4934;50.852;8.098;2023-12-14T08:52:56;4.60;99.90
9790;DHT22;4934;50.852;8.098;2023-12-14T08:55:24;4.60;99.90
9790;DHT22;4934;50.852;8.098;2023-12-14T08:57:50;4.70;99.90
9790;DHT22;4934;50.852;8.098;2023-12-14T09:00:16;4.60;99.90
9790;DHT22;4934;50.852;8.098;2023-12-14T09:02:43;4.60;99.90
9790;DHT22;4934;50.852;8.098;2023-12-14T09:05:13;4.60;99.90
9790;DHT22;4934;50.852;8.098;2023-12-14T09:07:39;4.50;99.90
9790;DHT22;4934;50.852;8.098;2023-12-14T09:10:06;4.50;99.90
9790;DHT22;4934;50.852;8.098;2023-12-14T09:12:32;4.60;99.90
9790;DHT22;4934;50.852;8.098;2023-12-14T09:14:59;4.60;99.90
9790;DHT22;4934;50.852;8.098;2023-12-14T09:17:24;4.70;99.90
9790;DHT22;4934;50.852;8.098;2023-12-14T09:19:50;4.70;99.90
9790;DHT22;4934;50.852;8.098;2023-12-14T09:22:15;4.70;99.90
9790;DHT22;4934;50.852;8.098;2023-12-14T09:24:41;4.70;99.90
9790;DHT22;4934;50.852;8.098;2023-12-14T09:27:07;4.80;99.90
9790;DHT22;4934;50.852;8.098;2023-12-14T09:29:33;4.70;99.90
9790;DHT22;4934;50.852;8.098;2023-12-14T09:31:58;4.80;99.90
9790;DHT22;4934;50.852;8.098;2023-12-14T09:34:24;4.70;99.90
9790;DHT22;4934;50.852;8.098;2023-12-14T09:36:50;4.70;99.90
9790;DHT22;4934;50.852;8.098;2023-12-14T09:39:15;4.70;99.90
9790;DHT22;4934;50.852;8.098;2023-12-14T09:41:41;4.70;99.90
9790;DHT22;4934;50.852;8.098;2023-12-14T09:44:07;4.70;99.90
9790;DHT22;4934;50.852;8.098;2023-12-14T09:46:37;4.80;99.90
9790;DHT22;4934;50.852;8.098;2023-12-14T09:49:04;4.90;99.90
9790;DHT22;4934;50.852;8.098;2023-12-14T09:51:30;4.80;99.90
9790;DHT22;4934;50.852;8.098;2023-12-14T09:53:56;4.80;99.90
9790;DHT22;4934;50.852;8.098;2023-12-14T09:56:27;4.80;99.90
9790;DHT22;4934;50.852;8.098;2023-12-14T09:58:53;4.90;99.90
9790;DHT22;4934;50.852;8.098;2023-12-14T10:01:26;4.90;99.90
9790;DHT22;4934;50.852;8.098;2023-12-14T10:04:08;4.90;99.90
9790;DHT22;4934;50.852;8.098;2023-12-14T10:06:33;5.00;99.90
9790;DHT22;4934;50.852;8.098;2023-12-14T10:08:59;4.90;99.90
9790;DHT22;4934;50.852;8.098;2023-12-14T10:11:24;4.80;99.90
9790;DHT22;4934;50.852;8.098;2023-12-14T10:13:50;4.80;99.90
9790;DHT22;4934;50.852;8.098;2023-12-14T10:16:29;4.70;99.90
9790;DHT22;4934;50.852;8.098;2023-12-14T10:18:57;4.80;99.90
9790;DHT22;4934;50.852;8.098;2023-12-14T10:21:25;4.70;99.90
9790;DHT22;4934;50.852;8.098;2023-12-14T10:23:51;4.80;99.90
9790;DHT22;4934;50.852;8.098;2023-12-14T10:26:16;4.80;99.90
9790;DHT22;4934;50.852;8.098;2023-12-14T10:28:42;4.80;99.90
9790;DHT22;4934;50.852;8.098;2023-12-14T10:31:09;4.80;99.90
9790;DHT22;4934;50.852;8.098;2023-12-14T10:33:35;4.80;99.90
9790;DHT22;4934;50.852;8.098;2023-12-14T10:36:01;4.90;99.90
9790;DHT22;4934;50.852;8.098;2023-12-14T10:38:29;4.90;99.90
9790;DHT22;4934;50.852;8.098;2023-12-14T10:40:55;4.80;99.90
9790;DHT22;4934;50.852;8.098;2023-12-14T10:43:22;4.90;99.90
9790;DHT22;4934;50.852;8.098;2023-12-14T10:45:49;4.90;99.90
9790;DHT22;4934;50.852;8.098;2023-12-14T10:48:15;5.00;99.90
9790;DHT22;4934;50.852;8.098;2023-12-14T10:50:46;4.90;99.90
9790;DHT22;4934;50.852;8.098;2023-12-14T10:53:13;4.90;99.90
9790;DHT22;4934;50.852;8.098;2023-12-14T10:55:44;4.80;99.90
9790;DHT22;4934;50.852;8.098;2023-12-14T10:58:11;4.80;99.90
9790;DHT22;4934;50.852;8.098;2023-12-14T11:00:38;4.90;99.90
9790;DHT22;4934;50.852;8.098;2023-12-14T11:03:05;5.00;99.90
9790;DHT22;4934;50.852;8.098;2023-12-14T11:05:33;5.00;99.90
9790;DHT22;4934;50.852;8.098;2023-12-14T11:08:04;5.00;99.90
9790;DHT22;4934;50.852;8.098;2023-12-14T11:10:40;4.80;99.90
9790;DHT22;4934;50.852;8.098;2023-12-14T11:13:11;5.00;99.90
9790;DHT22;4934;50.852;8.098;2023-12-14T11:15:40;5.00;99.90
9790;DHT22;4934;50.852;8.098;2023-12-14T11:20:49;5.00;99.90
9790;DHT22;4934;50.852;8.098;2023-12-14T11:25:57;4.90;99.90
9790;DHT22;4934;50.852;8.098;2023-12-14T11:28:22;4.80;99.90
9790;DHT22;4934;50.852;8.098;2023-12-14T11:30:48;4.90;99.90
9790;DHT22;4934;50.852;8.098;2023-12-14T11:33:15;4.90;99.90
9790;DHT22;4934;50.852;8.098;2023-12-14T11:35:42;4.80;99.90
9790;DHT22;4934;50.852;8.098;2023-12-14T11:38:07;4.80;99.90
9790;DHT22;4934;50.852;8.098;2023-12-14T11:40:41;4.90;99.90
9790;DHT22;4934;50.852;8.098;2023-12-14T11:43:07;5.00;99.90
9790;DHT22;4934;50.852;8.098;2023-12-14T11:45:43;5.10;99.90
9790;DHT22;4934;50.852;8.098;2023-12-14T11:48:10;5.00;99.90
9790;DHT22;4934;50.852;8.098;2023-12-14T11:50:38;4.90;99.90
9790;DHT22;4934;50.852;8.098;2023-12-14T11:53:04;4.80;99.90
9790;DHT22;4934;50.852;8.098;2023-12-14T11:55:31;4.80;99.90
9790;DHT22;4934;50.852;8.098;2023-12-14T11:57:58;4.80;99.90
9790;DHT22;4934;50.852;8.098;2023-12-14T12:00:25;4.90;99.90
9790;DHT22;4934;50.852;8.098;2023-12-14T12:02:51;4.90;99.90
9790;DHT22;4934;50.852;8.098;2023-12-14T12:05:16;4.90;99.90
9790;DHT22;4934;50.852;8.098;2023-12-14T12:07:45;5.00;99.90
9790;DHT22;4934;50.852;8.098;2023-12-14T12:10:11;4.70;99.90
9790;DHT22;4934;50.852;8.098;2023-12-14T12:12:37;4.70;99.90
9790;DHT22;4934;50.852;8.098;2023-12-14T12:15:03;4.60;99.90
9790;DHT22;4934;50.852;8.098;2023-12-14T12:17:29;4.60;99.90
9790;DHT22;4934;50.852;8.098;2023-12-14T12:19:57;4.70;99.90
9790;DHT22;4934;50.852;8.098;2023-12-14T12:22:23;4.60;99.90
9790;DHT22;4934;50.852;8.098;2023-12-14T12:24:48;4.70;99.90
9790;DHT22;4934;50.852;8.098;2023-12-14T12:27:14;4.80;99.90
9790;DHT22;4934;50.852;8.098;2023-12-14T12:29:40;4.80;99.90
9790;DHT22;4934;50.852;8.098;2023-12-14T12:32:05;4.80;99.90
9790;DHT22;4934;50.852;8.098;2023-12-14T12:34:31;4.90;99.90
9790;DHT22;4934;50.852;8.098;2023-12-14T12:36:56;4.90;99.90
9790;DHT22;4934;50.852;8.098;2023-12-14T12:39:23;4.80;99.90
9790;DHT22;4934;50.852;8.098;2023-12-14T12:41:48;4.80;99.90
9790;DHT22;4934;50.852;8.098;2023-12-14T12:44:14;4.90;99.90
9790;DHT22;4934;50.852;8.098;2023-12-14T12:46:39;4.90;99.90
9790;DHT22;4934;50.852;8.098;2023-12-14T12:49:06;4.90;99.90
9790;DHT22;4934;50.852;8.098;2023-12-14T12:51:32;4.80;99.90
9790;DHT22;4934;50.852;8.098;2023-12-14T12:53:58;4.80;99.90
9790;DHT22;4934;50.852;8.098;2023-12-14T12:56:26;4.70;99.90
9790;DHT22;4934;50.852;8.098;2023-12-14T12:58:52;4.80;99.90
9790;DHT22;4934;50.852;8.098;2023-12-14T13:01:23;4.80;99.90
9790;DHT22;4934;50.852;8.098;2023-12-14T13:03:54;4.80;99.90
9790;DHT22;4934;50.852;8.098;2023-12-14T13:06:21;4.70;99.90
9790;DHT22;4934;50.852;8.098;2023-12-14T13:08:47;4.70;99.90
9790;DHT22;4934;50.852;8.098;2023-12-14T13:11:13;4.70;99.90
9790;DHT22;4934;50.852;8.098;2023-12-14T13:13:40;4.60;99.90
9790;DHT22;4934;50.852;8.098;2023-12-14T13:16:06;4.60;99.90
9790;DHT22;4934;50.852;8.098;2023-12-14T13:18:31;4.60;99.90
9790;DHT22;4934;50.852;8.098;2023-12-14T13:20:57;4.60;99.90
9790;DHT22;4934;50.852;8.098;2023-12-14T13:23:23;4.70;99.90
9790;DHT22;4934;50.852;8.098;2023-12-14T13:25:48;4.60;99.90
9790;DHT22;4934;50.852;8.098;2023-12-14T13:28:14;4.70;99.90
9790;DHT22;4934;50.852;8.098;2023-12-14T13:30:40;4.70;99.90
9790;DHT22;4934;50.852;8.098;2023-12-14T13:33:07;4.70;99.90
9790;DHT22;4934;50.852;8.098;2023-12-14T13:35:34;4.70;99.90
9790;DHT22;4934;50.852;8.098;2023-12-14T13:38:00;4.60;99.90
9790;DHT22;4934;50.852;8.098;2023-12-14T13:40:26;4.60;99.90
9790;DHT22;4934;50.852;8.098;2023-12-14T13:42:51;4.70;99.90
9790;DHT22;4934;50.852;8.098;2023-12-14T13:45:18;4.50;99.90
9790;DHT22;4934;50.852;8.098;2023-12-14T13:47:44;4.50;99.90
9790;DHT22;4934;50.852;8.098;2023-12-14T13:50:09;4.50;99.90
9790;DHT22;4934;50.852;8.098;2023-12-14T13:52:35;4.40;99.90
9790;DHT22;4934;50.852;8.098;2023-12-14T13:55:00;4.50;99.90
9790;DHT22;4934;50.852;8.098;2023-12-14T13:57:26;4.40;99.90
9790;DHT22;4934;50.852;8.098;2023-12-14T13:59:52;4.40;99.90
9790;DHT22;4934;50.852;8.098;2023-12-14T14:02:18;4.50;99.90
9790;DHT22;4934;50.852;8.098;2023-12-14T14:04:44;4.50;99.90
9790;DHT22;4934;50.852;8.098;2023-12-14T14:07:10;4.40;99.90
9790;DHT22;4934;50.852;8.098;2023-12-14T14:09:35;4.50;99.90
9790;DHT22;4934;50.852;8.098;2023-12-14T14:12:01;4.50;99.90
9790;DHT22;4934;50.852;8.098;2023-12-14T14:14:27;4.50;99.90
9790;DHT22;4934;50.852;8.098;2023-12-14T14:16:52;4.40;99.90
9790;DHT22;4934;50.852;8.098;2023-12-14T14:19:18;4.40;99.90
9790;DHT22;4934;50.852;8.098;2023-12-14T14:21:43;4.40;99.90
9790;DHT22;4934;50.852;8.098;2023-12-14T14:24:09;4.40;99.90
9790;DHT22;4934;50.852;8.098;2023-12-14T14:26:35;4.50;99.90
9790;DHT22;4934;50.852;8.098;2023-12-14T14:29:01;4.50;99.90
9790;DHT22;4934;50.852;8.098;2023-12-14T14:31:28;4.50;99.90
9790;DHT22;4934;50.852;8.098;2023-12-14T14:34:00;4.50;99.90
9790;DHT22;4934;50.852;8.098;2023-12-14T14:36:26;4.40;99.90
9790;DHT22;4934;50.852;8.098;2023-12-14T14:38:52;4.40;99.90
9790;DHT22;4934;50.852;8.098;2023-12-14T14:41:20;4.40;99.90
9790;DHT22;4934;50.852;8.098;2023-12-14T14:43:46;4.40;99.90
9790;DHT22;4934;50.852;8.098;2023-12-14T14:46:11;4.30;99.90
9790;DHT22;4934;50.852;8.098;2023-12-14T14:48:37;4.30;99.90
9790;DHT22;4934;50.852;8.098;2023-12-14T14:51:03;4.30;99.90
9790;DHT22;4934;50.852;8.098;2023-12-14T14:53:29;4.30;99.90
9790;DHT22;4934;50.852;8.098;2023-12-14T14:55:55;4.30;99.90
9790;DHT22;4934;50.852;8.098;2023-12-14T14:58:21;4.30;99.90
9790;DHT22;4934;50.852;8.098;2023-12-14T15:00:47;4.40;99.90
9790;DHT22;4934;50.852;8.098;2023-12-14T15:03:13;4.40;99.90
9790;DHT22;4934;50.852;8.098;2023-12-14T15:05:39;4.40;99.90
9790;DHT22;4934;50.852;8.098;2023-12-14T15:08:05;4.40;99.90
9790;DHT22;4934;50.852;8.098;2023-12-14T15:10:32;4.40;99.90
9790;DHT22;4934;50.852;8.098;2023-12-14T15:12:58;4.50;99.90
9790;DHT22;4934;50.852;8.098;2023-12-14T15:15:23;4.50;99.90
9790;DHT22;4934;50.852;8.098;2023-12-14T15:17:49;4.60;99.90
9790;DHT22;4934;50.852;8.098;2023-12-14T15:20:14;4.40;99.90
9790;DHT22;4934;50.852;8.098;2023-12-14T15:22:40;4.40;99.90
9790;DHT22;4934;50.852;8.098;2023-12-14T15:25:08;4.30;99.90
9790;DHT22;4934;50.852;8.098;2023-12-14T15:27:34;4.30;99.90
9790;DHT22;4934;50.852;8.098;2023-12-14T15:30:00;4.30;99.90
9790;DHT22;4934;50.852;8.098;2023-12-14T15:32:25;4.20;99.90
9790;DHT22;4934;50.852;8.098;2023-12-14T15:34:51;4.10;99.90
9790;DHT22;4934;50.852;8.098;2023-12-14T15:37:17;4.00;99.90
9790;DHT22;4934;50.852;8.098;2023-12-14T15:39:43;4.00;99.90
9790;DHT22;4934;50.852;8.098;2023-12-14T15:42:16;4.10;99.90
9790;DHT22;4934;50.852;8.098;2023-12-14T15:44:42;4.10;99.90
9790;DHT22;4934;50.852;8.098;2023-12-14T15:47:10;4.00;99.90
9790;DHT22;4934;50.852;8.098;2023-12-14T15:49:36;4.00;99.90
9790;DHT22;4934;50.852;8.098;2023-12-14T15:52:02;4.00;99.90
9790;DHT22;4934;50.852;8.098;2023-12-14T15:54:27;4.10;99.90
9790;DHT22;4934;50.852;8.098;2023-12-14T15:56:56;4.20;99.90
9790;DHT22;4934;50.852;8.098;2023-12-14T15:59:24;4.20;99.90
9790;DHT22;4934;50.852;8.098;2023-12-14T16:01:49;4.30;99.90
9790;DHT22;4934;50.852;8.098;2023-12-14T16:04:15;4.30;99.90
9790;DHT22;4934;50.852;8.098;2023-12-14T16:06:40;4.30;99.90
9790;DHT22;4934;50.852;8.098;2023-12-14T16:09:06;4.20;99.90
9790;DHT22;4934;50.852;8.098;2023-12-14T16:11:31;4.20;99.90
9790;DHT22;4934;50.852;8.098;2023-12-14T16:13:58;4.20;99.90